메인 페이지
METAR-TAF:

METAR-TAF

공항 :

Lahaina, 하와이, 미국

위도: 21-01N, 경도: 156-38W, 고도: 40m

METAR: 누락

시각: 17:20 (03:20 UTC)

예보

예보는 3 시간 52분 전, 23:28시(UTC)에 발표되었습니다.
예보 대상 시간: 18일 00시부터 18일 24시까지 (UTC)
북북동13kt
시정: 10km
고도 3000ft 상공 구름 조금
18일 0500시부터 (UTC)
북북동9kt
시정: 10km
고도 3000ft 상공 구름 조금
18일 1900시부터 (UTC)
북북동13kt
시정: 10km
고도 3000ft 상공 구름 조금

TAF: PHJH 172328Z 1800/1824 02013KT P6SM FEW030 FM180500 03009KT P6SM FEW030 FM181900 02013KT P6SM FEW030

4,000개 이상의 공항 관측 자료 및 예보 (METAR 및 TAF 보고).

지도상에서 검색 가능한 기상관측소가 노란 점과 빨간 점으로 표시되어 있습니다.

기상관측소 명을 보려면 표시 위로 마우스를 이동하세요.

날씨 관측과 예보를 보려면 클릭하세요.

지도 변경 : 확대하려면 엑스 표시가 있는 녹색 버튼, 축소하려면 빼기 표시가 있는 녹색 버튼, 다음 페이지의 지도를 보려면 녹색 화살표를 클릭하세요.


METAR-TAF: